sensor_id;sensor_type;location;lat;lon;timestamp;temperature;humidity
758;DHT22;363;48.764;9.172;2023-04-04T00:00:03;2.80;90.90
758;DHT22;363;48.764;9.172;2023-04-04T00:02:29;3.50;90.90
758;DHT22;363;48.764;9.172;2023-04-04T00:04:54;3.20;91.00
758;DHT22;363;48.764;9.172;2023-04-04T00:07:20;3.30;91.50
758;DHT22;363;48.764;9.172;2023-04-04T00:09:46;3.10;91.00
758;DHT22;363;48.764;9.172;2023-04-04T00:12:12;2.60;91.10
758;DHT22;363;48.764;9.172;2023-04-04T00:14:38;3.10;91.70
758;DHT22;363;48.764;9.172;2023-04-04T00:17:03;2.80;91.60
758;DHT22;363;48.764;9.172;2023-04-04T00:19:29;2.80;91.80
758;DHT22;363;48.764;9.172;2023-04-04T00:21:55;2.90;92.30
758;DHT22;363;48.764;9.172;2023-04-04T00:24:21;3.10;92.10
758;DHT22;363;48.764;9.172;2023-04-04T00:26:46;2.80;92.40
758;DHT22;363;48.764;9.172;2023-04-04T00:29:12;3.40;92.70
758;DHT22;363;48.764;9.172;2023-04-04T00:31:38;3.20;93.10
758;DHT22;363;48.764;9.172;2023-04-04T00:34:03;3.00;92.60
758;DHT22;363;48.764;9.172;2023-04-04T00:36:29;2.80;92.40
758;DHT22;363;48.764;9.172;2023-04-04T00:38:55;2.40;92.20
758;DHT22;363;48.764;9.172;2023-04-04T00:41:20;3.00;93.00
758;DHT22;363;48.764;9.172;2023-04-04T00:43:47;2.80;93.20
758;DHT22;363;48.764;9.172;2023-04-04T00:46:13;2.80;92.80
758;DHT22;363;48.764;9.172;2023-04-04T00:48:40;2.50;92.40
758;DHT22;363;48.764;9.172;2023-04-04T00:51:06;2.80;92.90
758;DHT22;363;48.764;9.172;2023-04-04T00:53:32;2.60;92.80
758;DHT22;363;48.764;9.172;2023-04-04T00:55:58;2.60;93.30
758;DHT22;363;48.764;9.172;2023-04-04T00:58:24;2.30;93.50
758;DHT22;363;48.764;9.172;2023-04-04T01:00:51;2.50;93.20
758;DHT22;363;48.764;9.172;2023-04-04T01:03:17;2.50;93.50
758;DHT22;363;48.764;9.172;2023-04-04T01:05:43;2.50;93.70
758;DHT22;363;48.764;9.172;2023-04-04T01:08:09;2.10;94.10
758;DHT22;363;48.764;9.172;2023-04-04T01:10:35;2.40;94.40
758;DHT22;363;48.764;9.172;2023-04-04T01:13:02;2.40;94.60
758;DHT22;363;48.764;9.172;2023-04-04T01:15:28;2.30;94.10
758;DHT22;363;48.764;9.172;2023-04-04T01:17:56;2.50;94.60
758;DHT22;363;48.764;9.172;2023-04-04T01:20:24;2.30;94.60
758;DHT22;363;48.764;9.172;2023-04-04T01:22:52;2.20;95.00
758;DHT22;363;48.764;9.172;2023-04-04T01:25:31;2.40;94.90
758;DHT22;363;48.764;9.172;2023-04-04T01:28:00;2.10;95.10
758;DHT22;363;48.764;9.172;2023-04-04T01:30:32;2.00;95.30
758;DHT22;363;48.764;9.172;2023-04-04T01:33:24;2.10;95.90
758;DHT22;363;48.764;9.172;2023-04-04T01:36:12;2.00;96.10
758;DHT22;363;48.764;9.172;2023-04-04T01:41:33;2.10;95.80
758;DHT22;363;48.764;9.172;2023-04-04T01:43:59;2.20;96.30
758;DHT22;363;48.764;9.172;2023-04-04T01:46:25;2.20;95.60
758;DHT22;363;48.764;9.172;2023-04-04T01:48:51;2.20;94.90
758;DHT22;363;48.764;9.172;2023-04-04T01:51:18;2.70;95.20
758;DHT22;363;48.764;9.172;2023-04-04T01:53:43;2.30;95.30
758;DHT22;363;48.764;9.172;2023-04-04T01:56:09;2.30;95.10
758;DHT22;363;48.764;9.172;2023-04-04T01:58:34;2.20;94.20
758;DHT22;363;48.764;9.172;2023-04-04T02:01:00;2.30;94.20
758;DHT22;363;48.764;9.172;2023-04-04T02:03:26;2.10;94.50
758;DHT22;363;48.764;9.172;2023-04-04T02:05:52;2.20;94.90
758;DHT22;363;48.764;9.172;2023-04-04T02:08:18;2.30;94.80
758;DHT22;363;48.764;9.172;2023-04-04T02:10:44;1.80;95.10
758;DHT22;363;48.764;9.172;2023-04-04T02:13:10;2.40;95.40
758;DHT22;363;48.764;9.172;2023-04-04T02:15:36;2.50;94.90
758;DHT22;363;48.764;9.172;2023-04-04T02:18:02;2.40;94.90
758;DHT22;363;48.764;9.172;2023-04-04T02:20:27;2.20;94.80
758;DHT22;363;48.764;9.172;2023-04-04T02:22:55;2.20;94.50
758;DHT22;363;48.764;9.172;2023-04-04T02:25:24;2.30;95.00
758;DHT22;363;48.764;9.172;2023-04-04T02:27:50;2.50;95.00
758;DHT22;363;48.764;9.172;2023-04-04T02:30:16;2.20;95.00
758;DHT22;363;48.764;9.172;2023-04-04T02:32:42;2.00;94.90
758;DHT22;363;48.764;9.172;2023-04-04T02:35:07;2.20;95.10
758;DHT22;363;48.764;9.172;2023-04-04T02:37:33;2.10;95.20
758;DHT22;363;48.764;9.172;2023-04-04T02:39:59;2.00;95.50
758;DHT22;363;48.764;9.172;2023-04-04T02:42:24;1.90;96.30
758;DHT22;363;48.764;9.172;2023-04-04T02:44:50;1.70;96.10
758;DHT22;363;48.764;9.172;2023-04-04T02:47:16;1.70;95.80
758;DHT22;363;48.764;9.172;2023-04-04T02:49:42;2.00;96.30
758;DHT22;363;48.764;9.172;2023-04-04T02:52:07;1.90;96.20
758;DHT22;363;48.764;9.172;2023-04-04T02:54:33;1.90;96.20
758;DHT22;363;48.764;9.172;2023-04-04T02:56:59;1.40;95.50
758;DHT22;363;48.764;9.172;2023-04-04T02:59:24;2.10;95.80
758;DHT22;363;48.764;9.172;2023-04-04T03:01:50;2.10;96.10
758;DHT22;363;48.764;9.172;2023-04-04T03:04:16;1.90;95.70
758;DHT22;363;48.764;9.172;2023-04-04T03:06:44;1.90;96.20
758;DHT22;363;48.764;9.172;2023-04-04T03:09:10;1.50;95.40
758;DHT22;363;48.764;9.172;2023-04-04T03:11:36;1.80;96.00
758;DHT22;363;48.764;9.172;2023-04-04T03:14:01;1.80;96.60
758;DHT22;363;48.764;9.172;2023-04-04T03:16:27;2.00;96.40
758;DHT22;363;48.764;9.172;2023-04-04T03:18:54;1.80;95.90
758;DHT22;363;48.764;9.172;2023-04-04T03:21:20;2.00;95.90
758;DHT22;363;48.764;9.172;2023-04-04T03:23:46;1.30;95.60
758;DHT22;363;48.764;9.172;2023-04-04T03:26:11;1.70;95.80
758;DHT22;363;48.764;9.172;2023-04-04T03:28:37;1.40;96.10
758;DHT22;363;48.764;9.172;2023-04-04T03:31:04;1.70;96.20
758;DHT22;363;48.764;9.172;2023-04-04T03:33:31;1.60;96.50
758;DHT22;363;48.764;9.172;2023-04-04T03:35:58;1.50;96.50
758;DHT22;363;48.764;9.172;2023-04-04T03:38:23;1.60;96.40
758;DHT22;363;48.764;9.172;2023-04-04T03:40:49;1.90;97.70
758;DHT22;363;48.764;9.172;2023-04-04T03:43:15;1.10;97.80
758;DHT22;363;48.764;9.172;2023-04-04T03:45:41;1.60;97.20
758;DHT22;363;48.764;9.172;2023-04-04T03:48:09;1.70;97.30
758;DHT22;363;48.764;9.172;2023-04-04T03:50:35;1.20;97.00
758;DHT22;363;48.764;9.172;2023-04-04T03:53:01;1.10;97.10
758;DHT22;363;48.764;9.172;2023-04-04T03:55:27;1.10;97.10
758;DHT22;363;48.764;9.172;2023-04-04T03:57:53;1.60;97.50
758;DHT22;363;48.764;9.172;2023-04-04T04:00:19;1.50;97.30
758;DHT22;363;48.764;9.172;2023-04-04T04:02:45;1.50;97.20
758;DHT22;363;48.764;9.172;2023-04-04T04:05:10;1.60;97.20
758;DHT22;363;48.764;9.172;2023-04-04T04:07:36;1.30;97.10
758;DHT22;363;48.764;9.172;2023-04-04T04:10:02;1.30;97.40
758;DHT22;363;48.764;9.172;2023-04-04T04:12:28;1.40;97.70
758;DHT22;363;48.764;9.172;2023-04-04T04:14:53;1.40;97.50
758;DHT22;363;48.764;9.172;2023-04-04T04:17:19;1.10;97.50
758;DHT22;363;48.764;9.172;2023-04-04T04:19:44;1.50;97.50
758;DHT22;363;48.764;9.172;2023-04-04T04:22:11;0.80;97.40
758;DHT22;363;48.764;9.172;2023-04-04T04:24:36;1.30;97.50
758;DHT22;363;48.764;9.172;2023-04-04T04:27:02;1.40;97.90
758;DHT22;363;48.764;9.172;2023-04-04T04:29:27;1.10;97.60
758;DHT22;363;48.764;9.172;2023-04-04T04:31:53;1.10;97.50
758;DHT22;363;48.764;9.172;2023-04-04T04:34:18;1.20;97.60
758;DHT22;363;48.764;9.172;2023-04-04T04:36:44;1.30;97.60
758;DHT22;363;48.764;9.172;2023-04-04T04:39:10;1.30;97.80
758;DHT22;363;48.764;9.172;2023-04-04T04:41:35;1.10;97.70
758;DHT22;363;48.764;9.172;2023-04-04T04:44:01;1.30;98.10
758;DHT22;363;48.764;9.172;2023-04-04T04:46:26;1.30;97.90
758;DHT22;363;48.764;9.172;2023-04-04T04:48:52;1.50;97.80
758;DHT22;363;48.764;9.172;2023-04-04T04:51:18;1.30;97.70
758;DHT22;363;48.764;9.172;2023-04-04T04:53:43;1.40;97.60
758;DHT22;363;48.764;9.172;2023-04-04T04:56:09;1.40;97.60
758;DHT22;363;48.764;9.172;2023-04-04T04:58:34;1.40;97.60
758;DHT22;363;48.764;9.172;2023-04-04T05:01:00;1.20;97.30
758;DHT22;363;48.764;9.172;2023-04-04T05:03:26;1.30;97.90
758;DHT22;363;48.764;9.172;2023-04-04T05:05:52;1.40;97.50
758;DHT22;363;48.764;9.172;2023-04-04T05:08:18;1.50;97.90
758;DHT22;363;48.764;9.172;2023-04-04T05:10:43;1.50;97.90
758;DHT22;363;48.764;9.172;2023-04-04T05:13:09;1.40;97.70
758;DHT22;363;48.764;9.172;2023-04-04T05:15:35;1.50;97.20
758;DHT22;363;48.764;9.172;2023-04-04T05:18:01;1.50;97.20
758;DHT22;363;48.764;9.172;2023-04-04T05:20:27;1.60;97.50
758;DHT22;363;48.764;9.172;2023-04-04T05:22:52;1.10;96.40
758;DHT22;363;48.764;9.172;2023-04-04T05:25:18;1.50;95.60
758;DHT22;363;48.764;9.172;2023-04-04T05:27:47;1.10;95.50
758;DHT22;363;48.764;9.172;2023-04-04T05:30:13;1.70;95.90
758;DHT22;363;48.764;9.172;2023-04-04T05:32:39;1.60;95.40
758;DHT22;363;48.764;9.172;2023-04-04T05:35:05;1.80;95.80
758;DHT22;363;48.764;9.172;2023-04-04T05:37:31;1.80;95.60
758;DHT22;363;48.764;9.172;2023-04-04T05:39:56;1.90;95.30
758;DHT22;363;48.764;9.172;2023-04-04T05:42:22;1.90;95.50
758;DHT22;363;48.764;9.172;2023-04-04T05:44:47;1.60;94.60
758;DHT22;363;48.764;9.172;2023-04-04T05:47:13;1.90;94.80
758;DHT22;363;48.764;9.172;2023-04-04T05:49:39;1.80;94.90
758;DHT22;363;48.764;9.172;2023-04-04T05:52:04;2.10;94.70
758;DHT22;363;48.764;9.172;2023-04-04T05:54:30;2.00;94.40
758;DHT22;363;48.764;9.172;2023-04-04T05:56:55;2.10;94.20
758;DHT22;363;48.764;9.172;2023-04-04T05:59:21;1.50;94.00
758;DHT22;363;48.764;9.172;2023-04-04T06:01:47;2.00;94.30
758;DHT22;363;48.764;9.172;2023-04-04T06:04:12;2.20;93.80
758;DHT22;363;48.764;9.172;2023-04-04T06:06:38;2.70;94.10
758;DHT22;363;48.764;9.172;2023-04-04T06:09:04;2.30;93.50
758;DHT22;363;48.764;9.172;2023-04-04T06:11:29;1.80;93.00
758;DHT22;363;48.764;9.172;2023-04-04T06:13:56;2.70;93.40
758;DHT22;363;48.764;9.172;2023-04-04T06:16:22;2.90;93.00
758;DHT22;363;48.764;9.172;2023-04-04T06:18:48;2.40;91.90
758;DHT22;363;48.764;9.172;2023-04-04T06:21:13;3.00;92.10
758;DHT22;363;48.764;9.172;2023-04-04T06:23:39;2.40;91.40
758;DHT22;363;48.764;9.172;2023-04-04T06:26:06;2.70;91.10
758;DHT22;363;48.764;9.172;2023-04-04T06:28:32;3.50;90.90
758;DHT22;363;48.764;9.172;2023-04-04T06:30:58;3.90;89.20
758;DHT22;363;48.764;9.172;2023-04-04T06:33:24;3.20;89.90
758;DHT22;363;48.764;9.172;2023-04-04T06:35:49;4.10;90.00
758;DHT22;363;48.764;9.172;2023-04-04T06:38:15;4.20;89.20
758;DHT22;363;48.764;9.172;2023-04-04T06:40:41;4.10;88.40
758;DHT22;363;48.764;9.172;2023-04-04T06:43:07;4.30;87.90
758;DHT22;363;48.764;9.172;2023-04-04T06:45:34;4.30;87.30
758;DHT22;363;48.764;9.172;2023-04-04T06:48:00;4.60;86.50
758;DHT22;363;48.764;9.172;2023-04-04T06:50:29;5.60;86.30
758;DHT22;363;48.764;9.172;2023-04-04T06:52:55;6.30;82.60
758;DHT22;363;48.764;9.172;2023-04-04T06:55:21;7.30;79.30
758;DHT22;363;48.764;9.172;2023-04-04T06:57:48;8.40;90.70
758;DHT22;363;48.764;9.172;2023-04-04T07:00:14;9.80;99.90
758;DHT22;363;48.764;9.172;2023-04-04T07:02:40;11.10;91.00
758;DHT22;363;48.764;9.172;2023-04-04T07:05:06;12.20;92.30
758;DHT22;363;48.764;9.172;2023-04-04T07:07:32;13.30;68.10
758;DHT22;363;48.764;9.172;2023-04-04T07:09:57;15.40;69.70
758;DHT22;363;48.764;9.172;2023-04-04T07:12:23;15.00;56.00
758;DHT22;363;48.764;9.172;2023-04-04T07:14:48;16.90;72.50
758;DHT22;363;48.764;9.172;2023-04-04T07:17:14;18.60;69.40
758;DHT22;363;48.764;9.172;2023-04-04T07:19:40;19.80;58.10
758;DHT22;363;48.764;9.172;2023-04-04T07:22:05;20.20;56.80
758;DHT22;363;48.764;9.172;2023-04-04T07:24:31;19.80;50.20
758;DHT22;363;48.764;9.172;2023-04-04T07:26:57;18.60;38.60
758;DHT22;363;48.764;9.172;2023-04-04T07:29:23;18.30;38.60
758;DHT22;363;48.764;9.172;2023-04-04T07:31:48;18.20;37.60
758;DHT22;363;48.764;9.172;2023-04-04T07:34:14;17.70;37.80
758;DHT22;363;48.764;9.172;2023-04-04T07:36:40;17.40;37.10
758;DHT22;363;48.764;9.172;2023-04-04T07:39:05;18.30;37.20
758;DHT22;363;48.764;9.172;2023-04-04T07:41:31;17.80;36.80
758;DHT22;363;48.764;9.172;2023-04-04T07:43:57;16.80;36.50
758;DHT22;363;48.764;9.172;2023-04-04T07:46:23;16.00;38.50
758;DHT22;363;48.764;9.172;2023-04-04T07:48:49;15.10;38.90
758;DHT22;363;48.764;9.172;2023-04-04T07:51:15;15.40;39.40
758;DHT22;363;48.764;9.172;2023-04-04T07:53:40;16.70;39.50
758;DHT22;363;48.764;9.172;2023-04-04T07:56:06;17.80;38.00
758;DHT22;363;48.764;9.172;2023-04-04T07:58:32;18.60;36.30
758;DHT22;363;48.764;9.172;2023-04-04T08:00:59;17.60;36.00
758;DHT22;363;48.764;9.172;2023-04-04T08:03:25;18.00;35.90
758;DHT22;363;48.764;9.172;2023-04-04T08:05:50;16.90;36.60
758;DHT22;363;48.764;9.172;2023-04-04T08:08:16;17.00;36.50
758;DHT22;363;48.764;9.172;2023-04-04T08:10:43;17.30;36.80
758;DHT22;363;48.764;9.172;2023-04-04T08:13:10;17.70;36.60
758;DHT22;363;48.764;9.172;2023-04-04T08:15:36;17.00;35.70
758;DHT22;363;48.764;9.172;2023-04-04T08:18:02;16.70;36.60
758;DHT22;363;48.764;9.172;2023-04-04T08:20:28;16.40;38.20
758;DHT22;363;48.764;9.172;2023-04-04T08:22:53;15.90;37.50
758;DHT22;363;48.764;9.172;2023-04-04T08:25:19;16.60;37.20
758;DHT22;363;48.764;9.172;2023-04-04T08:27:44;17.00;37.50
758;DHT22;363;48.764;9.172;2023-04-04T08:30:11;18.40;37.50
758;DHT22;363;48.764;9.172;2023-04-04T08:32:39;17.40;35.20
758;DHT22;363;48.764;9.172;2023-04-04T08:35:05;18.60;36.50
758;DHT22;363;48.764;9.172;2023-04-04T08:37:31;18.90;34.90
758;DHT22;363;48.764;9.172;2023-04-04T08:39:57;19.10;34.50
758;DHT22;363;48.764;9.172;2023-04-04T08:42:24;18.40;33.40
758;DHT22;363;48.764;9.172;2023-04-04T08:44:52;18.30;34.10
758;DHT22;363;48.764;9.172;2023-04-04T08:47:19;17.70;34.00
758;DHT22;363;48.764;9.172;2023-04-04T08:49:47;16.00;34.60
758;DHT22;363;48.764;9.172;2023-04-04T08:52:15;15.20;35.80
758;DHT22;363;48.764;9.172;2023-04-04T08:54:43;15.00;36.80
758;DHT22;363;48.764;9.172;2023-04-04T08:57:09;15.00;36.70
758;DHT22;363;48.764;9.172;2023-04-04T08:59:35;14.60;37.10
758;DHT22;363;48.764;9.172;2023-04-04T09:02:24;14.60;36.90
758;DHT22;363;48.764;9.172;2023-04-04T09:04:52;13.90;37.90
758;DHT22;363;48.764;9.172;2023-04-04T09:07:18;14.30;38.50
758;DHT22;363;48.764;9.172;2023-04-04T09:09:46;14.30;38.50
758;DHT22;363;48.764;9.172;2023-04-04T09:12:12;14.30;38.00
758;DHT22;363;48.764;9.172;2023-04-04T09:14:39;14.30;38.50
758;DHT22;363;48.764;9.172;2023-04-04T09:17:06;14.10;38.70
758;DHT22;363;48.764;9.172;2023-04-04T09:19:35;13.90;38.90
758;DHT22;363;48.764;9.172;2023-04-04T09:22:00;14.10;38.80
758;DHT22;363;48.764;9.172;2023-04-04T09:24:40;14.70;38.40
758;DHT22;363;48.764;9.172;2023-04-04T09:27:09;15.30;38.10
758;DHT22;363;48.764;9.172;2023-04-04T09:29:39;15.20;38.00
758;DHT22;363;48.764;9.172;2023-04-04T09:32:08;13.90;37.70
758;DHT22;363;48.764;9.172;2023-04-04T09:34:35;13.60;38.40
758;DHT22;363;48.764;9.172;2023-04-04T09:37:03;13.40;39.40
758;DHT22;363;48.764;9.172;2023-04-04T09:39:30;13.40;39.50
758;DHT22;363;48.764;9.172;2023-04-04T09:41:57;13.80;39.60
758;DHT22;363;48.764;9.172;2023-04-04T09:44:23;13.60;39.70
758;DHT22;363;48.764;9.172;2023-04-04T09:46:49;13.40;39.10
758;DHT22;363;48.764;9.172;2023-04-04T09:49:20;13.90;39.50
758;DHT22;363;48.764;9.172;2023-04-04T09:51:53;14.00;37.70
758;DHT22;363;48.764;9.172;2023-04-04T09:54:22;14.80;37.90
758;DHT22;363;48.764;9.172;2023-04-04T09:56:51;15.50;36.40
758;DHT22;363;48.764;9.172;2023-04-04T09:59:17;15.60;36.00
758;DHT22;363;48.764;9.172;2023-04-04T10:01:44;15.20;36.20
758;DHT22;363;48.764;9.172;2023-04-04T10:04:10;15.10;36.30
758;DHT22;363;48.764;9.172;2023-04-04T10:06:36;14.10;36.40
758;DHT22;363;48.764;9.172;2023-04-04T10:09:02;14.50;37.00
758;DHT22;363;48.764;9.172;2023-04-04T10:11:32;14.70;37.20
758;DHT22;363;48.764;9.172;2023-04-04T10:13:59;15.10;37.00
758;DHT22;363;48.764;9.172;2023-04-04T10:16:25;14.80;37.00
758;DHT22;363;48.764;9.172;2023-04-04T10:18:51;14.70;37.80
758;DHT22;363;48.764;9.172;2023-04-04T10:21:18;14.30;37.10
758;DHT22;363;48.764;9.172;2023-04-04T10:23:47;13.90;37.70
758;DHT22;363;48.764;9.172;2023-04-04T10:26:13;13.40;38.20
758;DHT22;363;48.764;9.172;2023-04-04T10:28:40;13.20;39.00
758;DHT22;363;48.764;9.172;2023-04-04T10:31:25;12.90;40.40
758;DHT22;363;48.764;9.172;2023-04-04T10:37:11;13.20;40.10
758;DHT22;363;48.764;9.172;2023-04-04T10:39:45;13.70;39.30
758;DHT22;363;48.764;9.172;2023-04-04T10:42:14;13.70;37.20
758;DHT22;363;48.764;9.172;2023-04-04T10:44:44;13.30;37.90
758;DHT22;363;48.764;9.172;2023-04-04T10:47:17;12.90;38.50
758;DHT22;363;48.764;9.172;2023-04-04T10:49:47;12.70;39.10
758;DHT22;363;48.764;9.172;2023-04-04T10:52:15;12.90;39.30
758;DHT22;363;48.764;9.172;2023-04-04T10:54:41;12.40;38.20
758;DHT22;363;48.764;9.172;2023-04-04T10:57:08;12.80;39.30
758;DHT22;363;48.764;9.172;2023-04-04T11:00:01;12.20;40.00
758;DHT22;363;48.764;9.172;2023-04-04T11:08:02;13.50;39.50
758;DHT22;363;48.764;9.172;2023-04-04T11:10:30;13.30;39.00
758;DHT22;363;48.764;9.172;2023-04-04T11:12:57;13.00;39.40
758;DHT22;363;48.764;9.172;2023-04-04T11:18:10;13.00;40.50
758;DHT22;363;48.764;9.172;2023-04-04T11:20:40;13.10;39.10
758;DHT22;363;48.764;9.172;2023-04-04T11:25:35;12.90;38.10
758;DHT22;363;48.764;9.172;2023-04-04T11:28:27;12.50;39.10
758;DHT22;363;48.764;9.172;2023-04-04T11:34:06;13.10;39.50
758;DHT22;363;48.764;9.172;2023-04-04T11:44:20;12.70;39.20
758;DHT22;363;48.764;9.172;2023-04-04T11:47:09;12.60;39.90
758;DHT22;363;48.764;9.172;2023-04-04T11:49:37;12.30;43.10
758;DHT22;363;48.764;9.172;2023-04-04T11:52:06;13.10;40.80
758;DHT22;363;48.764;9.172;2023-04-04T11:54:33;12.90;39.20
758;DHT22;363;48.764;9.172;2023-04-04T11:56:58;12.60;39.30
758;DHT22;363;48.764;9.172;2023-04-04T11:59:24;12.60;41.80
758;DHT22;363;48.764;9.172;2023-04-04T12:01:50;12.50;39.40
758;DHT22;363;48.764;9.172;2023-04-04T12:04:17;12.60;40.10
758;DHT22;363;48.764;9.172;2023-04-04T12:06:47;12.70;41.80
758;DHT22;363;48.764;9.172;2023-04-04T12:09:13;12.30;39.80
758;DHT22;363;48.764;9.172;2023-04-04T12:11:42;11.70;40.10
758;DHT22;363;48.764;9.172;2023-04-04T12:14:20;12.00;40.80
758;DHT22;363;48.764;9.172;2023-04-04T12:16:51;11.80;41.10
758;DHT22;363;48.764;9.172;2023-04-04T12:19:18;11.80;41.50
758;DHT22;363;48.764;9.172;2023-04-04T12:21:45;11.70;42.40
758;DHT22;363;48.764;9.172;2023-04-04T12:24:11;11.60;42.70
758;DHT22;363;48.764;9.172;2023-04-04T12:26:39;11.10;40.40
758;DHT22;363;48.764;9.172;2023-04-04T12:29:06;10.80;41.00
758;DHT22;363;48.764;9.172;2023-04-04T12:31:32;10.70;41.80
758;DHT22;363;48.764;9.172;2023-04-04T12:33:58;10.60;41.60
758;DHT22;363;48.764;9.172;2023-04-04T12:36:31;10.70;42.60
758;DHT22;363;48.764;9.172;2023-04-04T12:39:08;10.50;43.40
758;DHT22;363;48.764;9.172;2023-04-04T12:41:34;10.60;43.30
758;DHT22;363;48.764;9.172;2023-04-04T12:44:05;10.60;42.70
758;DHT22;363;48.764;9.172;2023-04-04T12:46:35;10.30;42.40
758;DHT22;363;48.764;9.172;2023-04-04T12:49:09;10.40;42.20
758;DHT22;363;48.764;9.172;2023-04-04T12:51:36;10.40;42.80
758;DHT22;363;48.764;9.172;2023-04-04T12:54:05;10.40;43.20
758;DHT22;363;48.764;9.172;2023-04-04T12:56:32;10.60;43.80
758;DHT22;363;48.764;9.172;2023-04-04T12:59:02;10.60;43.90
758;DHT22;363;48.764;9.172;2023-04-04T13:01:29;10.50;43.70
758;DHT22;363;48.764;9.172;2023-04-04T13:03:58;10.60;43.70
758;DHT22;363;48.764;9.172;2023-04-04T13:06:28;10.40;43.50
758;DHT22;363;48.764;9.172;2023-04-04T13:08:55;10.30;44.40
758;DHT22;363;48.764;9.172;2023-04-04T13:11:21;10.40;44.60
758;DHT22;363;48.764;9.172;2023-04-04T13:13:47;10.60;45.10
758;DHT22;363;48.764;9.172;2023-04-04T13:16:34;10.90;45.40
758;DHT22;363;48.764;9.172;2023-04-04T13:19:03;10.90;44.20
758;DHT22;363;48.764;9.172;2023-04-04T13:21:29;11.00;44.50
758;DHT22;363;48.764;9.172;2023-04-04T13:23:55;10.60;44.70
758;DHT22;363;48.764;9.172;2023-04-04T13:26:21;10.60;45.10
758;DHT22;363;48.764;9.172;2023-04-04T13:28:47;10.60;44.30
758;DHT22;363;48.764;9.172;2023-04-04T13:31:12;10.40;44.10
758;DHT22;363;48.764;9.172;2023-04-04T13:33:40;10.10;44.30
758;DHT22;363;48.764;9.172;2023-04-04T13:36:05;10.40;44.90
758;DHT22;363;48.764;9.172;2023-04-04T13:38:31;10.10;44.70
758;DHT22;363;48.764;9.172;2023-04-04T13:40:57;10.20;45.50
758;DHT22;363;48.764;9.172;2023-04-04T13:43:23;10.10;45.90
758;DHT22;363;48.764;9.172;2023-04-04T13:45:49;10.40;46.70
758;DHT22;363;48.764;9.172;2023-04-04T13:48:15;10.50;46.20
758;DHT22;363;48.764;9.172;2023-04-04T13:50:42;10.40;45.90
758;DHT22;363;48.764;9.172;2023-04-04T13:53:09;10.60;46.10
758;DHT22;363;48.764;9.172;2023-04-04T13:55:36;10.70;47.00
758;DHT22;363;48.764;9.172;2023-04-04T13:58:02;10.30;45.50
758;DHT22;363;48.764;9.172;2023-04-04T14:00:28;10.80;46.20
758;DHT22;363;48.764;9.172;2023-04-04T14:02:54;10.40;46.20
758;DHT22;363;48.764;9.172;2023-04-04T14:05:21;10.70;45.50
758;DHT22;363;48.764;9.172;2023-04-04T14:07:47;11.00;45.50
758;DHT22;363;48.764;9.172;2023-04-04T14:10:13;11.00;44.30
758;DHT22;363;48.764;9.172;2023-04-04T14:12:38;10.60;44.00
758;DHT22;363;48.764;9.172;2023-04-04T14:15:05;10.50;43.90
758;DHT22;363;48.764;9.172;2023-04-04T14:17:34;10.80;45.90
758;DHT22;363;48.764;9.172;2023-04-04T14:20:01;10.70;45.80
758;DHT22;363;48.764;9.172;2023-04-04T14:22:27;10.60;44.40
758;DHT22;363;48.764;9.172;2023-04-04T14:24:53;10.50;44.50
758;DHT22;363;48.764;9.172;2023-04-04T14:27:18;10.30;44.90
758;DHT22;363;48.764;9.172;2023-04-04T14:29:44;10.30;44.90
758;DHT22;363;48.764;9.172;2023-04-04T14:32:10;10.50;45.20
758;DHT22;363;48.764;9.172;2023-04-04T14:34:36;10.20;44.70
758;DHT22;363;48.764;9.172;2023-04-04T14:37:02;10.00;44.80
758;DHT22;363;48.764;9.172;2023-04-04T14:39:27;10.10;44.90
758;DHT22;363;48.764;9.172;2023-04-04T14:41:53;9.90;45.70
758;DHT22;363;48.764;9.172;2023-04-04T14:44:18;10.00;46.80
758;DHT22;363;48.764;9.172;2023-04-04T14:46:46;10.10;46.30
758;DHT22;363;48.764;9.172;2023-04-04T14:49:11;10.00;45.70
758;DHT22;363;48.764;9.172;2023-04-04T14:51:37;10.20;46.00
758;DHT22;363;48.764;9.172;2023-04-04T14:54:03;10.50;45.20
758;DHT22;363;48.764;9.172;2023-04-04T14:56:29;10.50;45.40
758;DHT22;363;48.764;9.172;2023-04-04T14:58:55;10.70;45.50
758;DHT22;363;48.764;9.172;2023-04-04T15:01:21;10.70;44.50
758;DHT22;363;48.764;9.172;2023-04-04T15:03:47;10.40;44.90
758;DHT22;363;48.764;9.172;2023-04-04T15:06:15;10.40;45.00
758;DHT22;363;48.764;9.172;2023-04-04T15:08:42;10.30;45.50
758;DHT22;363;48.764;9.172;2023-04-04T15:11:08;10.00;45.10
758;DHT22;363;48.764;9.172;2023-04-04T15:13:34;10.10;45.30
758;DHT22;363;48.764;9.172;2023-04-04T15:16:01;9.80;46.40
758;DHT22;363;48.764;9.172;2023-04-04T15:18:27;10.20;45.70
758;DHT22;363;48.764;9.172;2023-04-04T15:20:52;9.80;46.10
758;DHT22;363;48.764;9.172;2023-04-04T15:23:18;10.10;45.50
758;DHT22;363;48.764;9.172;2023-04-04T15:25:44;9.90;46.70
758;DHT22;363;48.764;9.172;2023-04-04T15:28:09;10.10;46.00
758;DHT22;363;48.764;9.172;2023-04-04T15:30:35;10.30;46.10
758;DHT22;363;48.764;9.172;2023-04-04T15:33:01;10.30;46.20
758;DHT22;363;48.764;9.172;2023-04-04T15:35:26;10.40;45.90
758;DHT22;363;48.764;9.172;2023-04-04T15:37:52;10.70;46.00
758;DHT22;363;48.764;9.172;2023-04-04T15:40:18;10.60;46.40
758;DHT22;363;48.764;9.172;2023-04-04T15:42:44;10.20;45.10
758;DHT22;363;48.764;9.172;2023-04-04T15:45:12;10.10;45.60
758;DHT22;363;48.764;9.172;2023-04-04T15:47:39;10.20;46.10
758;DHT22;363;48.764;9.172;2023-04-04T15:50:05;9.90;47.00
758;DHT22;363;48.764;9.172;2023-04-04T15:52:31;10.10;47.10
758;DHT22;363;48.764;9.172;2023-04-04T15:54:56;10.00;47.50
758;DHT22;363;48.764;9.172;2023-04-04T15:57:22;9.80;49.00
758;DHT22;363;48.764;9.172;2023-04-04T15:59:48;10.10;48.50
758;DHT22;363;48.764;9.172;2023-04-04T16:02:14;9.90;49.60
758;DHT22;363;48.764;9.172;2023-04-04T16:04:40;10.00;48.70
758;DHT22;363;48.764;9.172;2023-04-04T16:07:06;9.90;49.40
758;DHT22;363;48.764;9.172;2023-04-04T16:09:31;10.00;48.30
758;DHT22;363;48.764;9.172;2023-04-04T16:11:57;9.80;49.50
758;DHT22;363;48.764;9.172;2023-04-04T16:14:23;10.00;49.30
758;DHT22;363;48.764;9.172;2023-04-04T16:16:49;9.70;49.30
758;DHT22;363;48.764;9.172;2023-04-04T16:19:15;10.20;48.70
758;DHT22;363;48.764;9.172;2023-04-04T16:21:42;9.60;49.80
758;DHT22;363;48.764;9.172;2023-04-04T16:24:08;9.20;49.10
758;DHT22;363;48.764;9.172;2023-04-04T16:26:34;9.50;49.00
758;DHT22;363;48.764;9.172;2023-04-04T16:29:00;9.60;49.30
758;DHT22;363;48.764;9.172;2023-04-04T16:31:30;9.40;49.70
758;DHT22;363;48.764;9.172;2023-04-04T16:33:56;9.50;50.60
758;DHT22;363;48.764;9.172;2023-04-04T16:36:21;9.20;50.50
758;DHT22;363;48.764;9.172;2023-04-04T16:38:47;9.50;50.60
758;DHT22;363;48.764;9.172;2023-04-04T16:41:13;9.30;50.50
758;DHT22;363;48.764;9.172;2023-04-04T16:43:40;9.70;51.80
758;DHT22;363;48.764;9.172;2023-04-04T16:46:07;8.60;51.20
758;DHT22;363;48.764;9.172;2023-04-04T16:48:32;9.10;51.60
758;DHT22;363;48.764;9.172;2023-04-04T16:50:58;9.00;50.40
758;DHT22;363;48.764;9.172;2023-04-04T16:53:24;9.00;51.10
758;DHT22;363;48.764;9.172;2023-04-04T16:55:49;8.90;51.10
758;DHT22;363;48.764;9.172;2023-04-04T16:58:15;8.90;51.30
758;DHT22;363;48.764;9.172;2023-04-04T17:00:41;8.80;51.60
758;DHT22;363;48.764;9.172;2023-04-04T17:03:06;8.90;51.40
758;DHT22;363;48.764;9.172;2023-04-04T17:05:32;9.00;51.70
758;DHT22;363;48.764;9.172;2023-04-04T17:07:57;8.40;51.60